Time,TemperatureF,DewpointF,PressureIn,WindDirection,WindDirectionDegrees,WindSpeedMPH,WindSpeedGustMPH,Humidity,HourlyPrecipIn,Conditions,Clouds,dailyrainin,SoftwareType,DateUTC
2013-05-20 00:02:00,72.0,70.0,30.05,SSE,149,1.0,3.0,94,0.00,,,0.00,,2013-05-20 05:02:00,
2013-05-20 00:12:00,72.0,70.0,30.05,SSE,149,1.0,3.0,94,0.00,,,0.00,,2013-05-20 05:12:00,
2013-05-20 00:22:00,72.0,70.0,30.05,SSE,152,2.0,4.0,94,0.00,,,0.00,,2013-05-20 05:22:00,
2013-05-20 00:32:00,72.0,70.0,30.06,SSE,151,2.0,4.0,94,0.00,,,0.00,,2013-05-20 05:32:00,
2013-05-20 00:42:00,72.0,70.0,30.06,SSE,151,2.0,4.0,94,0.00,,,0.00,,2013-05-20 05:42:00,
2013-05-20 00:52:00,72.0,70.0,30.05,SSE,151,2.0,4.0,95,0.00,,,0.00,,2013-05-20 05:52:00,
2013-05-20 01:01:00,71.0,69.0,30.05,SSE,151,1.0,3.0,95,0.00,,,0.00,,2013-05-20 06:01:00,
2013-05-20 01:11:00,71.0,69.0,30.05,SSE,151,1.0,3.0,95,0.00,,,0.00,,2013-05-20 06:11:00,
2013-05-20 01:21:00,71.0,70.0,30.04,SE,128,2.0,4.0,96,0.00,,,0.00,,2013-05-20 06:21:00,
2013-05-20 01:32:00,71.0,70.0,30.04,SSE,148,1.0,3.0,96,0.00,,,0.00,,2013-05-20 06:32:00,
2013-05-20 01:41:00,71.0,70.0,30.04,SSE,148,1.0,3.0,96,0.00,,,0.00,,2013-05-20 06:41:00,
2013-05-20 01:52:00,71.0,70.0,30.03,South,187,1.0,3.0,96,0.00,,,0.00,,2013-05-20 06:52:00,
2013-05-20 02:01:00,71.0,70.0,30.03,SSE,161,2.0,5.0,96,0.00,,,0.00,,2013-05-20 07:01:00,
2013-05-20 02:12:00,71.0,70.0,30.03,SSE,161,2.0,5.0,96,0.00,,,0.00,,2013-05-20 07:12:00,
2013-05-20 02:21:00,72.0,71.0,30.02,SSE,147,3.0,6.0,96,0.00,,,0.00,,2013-05-20 07:21:00,
2013-05-20 02:32:00,71.0,70.0,30.02,SSE,161,3.0,5.0,96,0.00,,,0.00,,2013-05-20 07:32:00,
2013-05-20 02:42:00,71.0,70.0,30.02,SSE,161,3.0,5.0,96,0.00,,,0.00,,2013-05-20 07:42:00,
2013-05-20 02:52:00,71.0,70.0,30.01,South,171,4.0,6.0,96,0.00,,,0.00,,2013-05-20 07:52:00,
2013-05-20 03:01:00,71.0,70.0,30.01,SSE,150,2.0,7.0,96,0.00,,,0.00,,2013-05-20 08:01:00,
2013-05-20 03:11:00,71.0,70.0,30.01,SSE,150,2.0,7.0,96,0.00,,,0.00,,2013-05-20 08:11:00,
2013-05-20 03:21:00,71.0,70.0,30.01,South,175,3.0,5.0,96,0.00,,,0.00,,2013-05-20 08:21:00,
2013-05-20 03:32:00,71.0,70.0,30.01,South,176,2.0,6.0,97,0.00,,,0.00,,2013-05-20 08:32:00,
2013-05-20 03:41:00,71.0,70.0,30.01,South,176,2.0,6.0,97,0.00,,,0.00,,2013-05-20 08:41:00,
2013-05-20 03:52:00,71.0,70.0,30.00,SSW,205,1.0,4.0,96,0.00,,,0.00,,2013-05-20 08:52:00,
2013-05-20 04:02:00,71.0,70.0,29.99,SSW,196,0.0,3.0,96,0.00,,,0.00,,2013-05-20 09:02:00,
2013-05-20 04:12:00,71.0,70.0,29.99,SSW,196,0.0,3.0,96,0.00,,,0.00,,2013-05-20 09:12:00,
2013-05-20 04:21:00,71.0,70.0,29.99,SSW,195,0.0,4.0,97,0.01,,,0.01,,2013-05-20 09:21:00,
2013-05-20 04:32:00,71.0,70.0,29.99,South,182,1.0,4.0,97,0.01,,,0.01,,2013-05-20 09:32:00,
2013-05-20 04:43:00,71.0,70.0,29.99,South,182,1.0,4.0,97,0.01,,,0.01,,2013-05-20 09:43:00,
2013-05-20 04:53:00,71.0,70.0,29.99,SSW,195,0.0,3.0,97,0.01,,,0.01,,2013-05-20 09:53:00,
2013-05-20 05:03:00,70.0,69.0,29.98,SSW,199,1.0,4.0,97,0.01,,,0.01,,2013-05-20 10:03:00,
2013-05-20 05:12:00,70.0,69.0,29.98,SSW,199,1.0,4.0,97,0.01,,,0.01,,2013-05-20 10:12:00,
2013-05-20 05:22:00,70.0,69.0,29.98,SSW,203,1.0,5.0,97,0.00,,,0.01,,2013-05-20 10:22:00,
2013-05-20 05:32:00,70.0,69.0,29.98,SSW,211,0.0,2.0,97,0.00,,,0.01,,2013-05-20 10:32:00,
2013-05-20 05:42:00,70.0,69.0,29.98,SSW,211,0.0,2.0,97,0.00,,,0.01,,2013-05-20 10:42:00,
2013-05-20 05:52:00,70.0,69.0,29.98,SSW,206,0.0,3.0,97,0.00,,,0.01,,2013-05-20 10:52:00,
2013-05-20 06:02:00,70.0,69.0,29.98,South,189,1.0,3.0,97,0.00,,,0.01,,2013-05-20 11:02:00,
2013-05-20 06:12:00,70.0,69.0,29.98,South,189,1.0,3.0,97,0.00,,,0.01,,2013-05-20 11:12:00,
2013-05-20 06:21:00,70.0,69.0,29.99,South,190,0.0,3.0,97,0.00,,,0.01,,2013-05-20 11:21:00,
2013-05-20 06:32:00,70.0,69.0,29.99,South,188,0.0,3.0,98,0.00,,,0.01,,2013-05-20 11:32:00,
2013-05-20 06:41:00,70.0,69.0,29.99,South,188,0.0,3.0,98,0.00,,,0.01,,2013-05-20 11:41:00,
2013-05-20 06:52:00,70.0,69.0,30.00,SSW,197,0.0,3.0,98,0.00,,,0.01,,2013-05-20 11:52:00,
2013-05-20 07:01:00,71.0,70.0,30.01,SSW,196,0.0,2.0,98,0.00,,,0.01,,2013-05-20 12:01:00,
2013-05-20 07:11:00,71.0,70.0,30.01,SSW,196,0.0,2.0,98,0.00,,,0.01,,2013-05-20 12:11:00,
2013-05-20 07:21:00,71.0,70.0,30.01,SSW,192,0.0,1.0,98,0.00,,,0.01,,2013-05-20 12:21:00,
2013-05-20 07:31:00,71.0,70.0,30.01,SSW,192,0.0,1.0,98,0.00,,,0.01,,2013-05-20 12:31:00,
2013-05-20 07:41:00,71.0,70.0,30.01,SSW,192,0.0,1.0,98,0.00,,,0.01,,2013-05-20 12:41:00,
2013-05-20 07:52:00,72.0,71.0,30.02,ESE,111,0.0,3.0,98,0.00,,,0.01,,2013-05-20 12:52:00,
2013-05-20 08:01:00,73.0,72.0,30.02,WSW,243,1.0,3.0,98,0.00,,,0.01,,2013-05-20 13:01:00,
2013-05-20 08:11:00,73.0,72.0,30.02,WSW,243,1.0,3.0,98,0.00,,,0.01,,2013-05-20 13:11:00,
2013-05-20 08:22:00,73.0,72.0,30.03,SW,215,1.0,4.0,97,0.00,,,0.01,,2013-05-20 13:22:00,
2013-05-20 08:31:00,74.0,73.0,30.03,South,177,3.0,6.0,96,0.00,,,0.01,,2013-05-20 13:31:00,
2013-05-20 08:41:00,74.0,73.0,30.03,South,177,3.0,6.0,96,0.00,,,0.01,,2013-05-20 13:41:00,
2013-05-20 08:52:00,75.0,73.0,30.04,South,171,3.0,7.0,92,0.00,,,0.01,,2013-05-20 13:52:00,
2013-05-20 09:01:00,77.0,73.0,30.04,SSE,163,2.0,5.0,88,0.00,,,0.01,,2013-05-20 14:01:00,
2013-05-20 09:11:00,77.0,73.0,30.04,SSE,163,2.0,5.0,88,0.00,,,0.01,,2013-05-20 14:11:00,
2013-05-20 09:22:00,78.0,73.0,30.04,South,172,1.0,5.0,85,0.00,,,0.01,,2013-05-20 14:22:00,
2013-05-20 09:32:00,79.0,72.0,30.04,South,171,1.0,5.0,80,0.00,,,0.01,,2013-05-20 14:32:00,
2013-05-20 09:41:00,79.0,72.0,30.04,South,171,1.0,5.0,80,0.00,,,0.01,,2013-05-20 14:41:00,
2013-05-20 09:52:00,80.0,72.0,30.04,SE,146,2.0,5.0,77,0.00,,,0.01,,2013-05-20 14:52:00,
2013-05-20 10:01:00,81.0,72.0,30.05,SW,226,2.0,6.0,75,0.00,,,0.01,,2013-05-20 15:01:00,
2013-05-20 10:11:00,81.0,72.0,30.05,SW,226,2.0,6.0,75,0.00,,,0.01,,2013-05-20 15:11:00,
2013-05-20 10:21:00,82.0,72.0,30.04,West,279,3.0,6.0,71,0.00,,,0.01,,2013-05-20 15:21:00,
2013-05-20 10:33:00,83.0,72.0,30.05,SSW,213,3.0,8.0,69,0.00,,,0.01,,2013-05-20 15:33:00,
2013-05-20 10:42:00,83.0,72.0,30.05,SSW,213,3.0,8.0,69,0.00,,,0.01,,2013-05-20 15:42:00,
2013-05-20 10:53:00,84.0,72.0,30.05,West,267,5.0,9.0,68,0.00,,,0.01,,2013-05-20 15:53:00,
2013-05-20 11:03:00,84.0,71.0,30.05,ESE,113,0.0,6.0,66,0.00,,,0.01,,2013-05-20 16:03:00,
2013-05-20 11:12:00,84.0,71.0,30.05,ESE,113,0.0,6.0,66,0.00,,,0.01,,2013-05-20 16:12:00,
2013-05-20 11:22:00,85.0,71.0,30.05,SW,233,5.0,11.0,63,0.00,,,0.01,,2013-05-20 16:22:00,
2013-05-20 11:33:00,86.0,69.0,30.05,SSE,162,5.0,11.0,58,0.00,,,0.01,,2013-05-20 16:33:00,
2013-05-20 11:42:00,86.0,69.0,30.05,SSE,162,5.0,11.0,58,0.00,,,0.01,,2013-05-20 16:42:00,
2013-05-20 11:53:00,86.0,67.0,30.05,South,184,6.0,10.0,53,0.00,,,0.01,,2013-05-20 16:53:00,
2013-05-20 12:02:00,87.0,68.0,30.04,SSE,165,7.0,11.0,54,0.00,,,0.01,,2013-05-20 17:02:00,
2013-05-20 12:12:00,87.0,68.0,30.04,SSE,165,7.0,11.0,54,0.00,,,0.01,,2013-05-20 17:12:00,
2013-05-20 12:22:00,86.0,66.0,30.04,SSW,206,5.0,10.0,52,0.00,,,0.01,,2013-05-20 17:22:00,
2013-05-20 12:33:00,87.0,67.0,30.04,South,175,6.0,12.0,51,0.00,,,0.01,,2013-05-20 17:33:00,
2013-05-20 12:45:00,87.0,67.0,30.04,South,175,6.0,12.0,51,0.00,,,0.01,,2013-05-20 17:45:00,
2013-05-20 12:53:00,87.0,65.0,30.03,SSW,198,4.0,11.0,49,0.00,,,0.01,,2013-05-20 17:53:00,
2013-05-20 13:02:00,87.0,67.0,30.03,South,182,3.0,10.0,51,0.00,,,0.01,,2013-05-20 18:02:00,
2013-05-20 13:12:00,87.0,67.0,30.03,South,182,3.0,10.0,51,0.00,,,0.01,,2013-05-20 18:12:00,
2013-05-20 13:23:00,88.0,65.0,30.03,SSW,202,4.0,10.0,47,0.00,,,0.01,,2013-05-20 18:23:00,
2013-05-20 13:32:00,89.0,67.0,30.03,South,186,2.0,10.0,48,0.00,,,0.01,,2013-05-20 18:32:00,
2013-05-20 13:42:00,89.0,67.0,30.03,South,186,2.0,10.0,48,0.00,,,0.01,,2013-05-20 18:42:00,
2013-05-20 13:55:00,88.0,66.0,30.03,SW,229,3.0,10.0,49,0.00,,,0.01,,2013-05-20 18:55:00,
2013-05-20 14:04:00,88.0,66.0,30.02,ESE,119,1.0,8.0,49,0.00,,,0.01,,2013-05-20 19:04:00,
2013-05-20 14:11:00,88.0,66.0,30.02,ESE,119,1.0,8.0,49,0.00,,,0.01,,2013-05-20 19:11:00,
2013-05-20 14:21:00,88.0,66.0,30.02,South,182,6.0,10.0,48,0.00,,,0.01,,2013-05-20 19:21:00,
2013-05-20 14:32:00,88.0,68.0,30.02,SSE,168,4.0,12.0,52,0.00,,,0.01,,2013-05-20 19:32:00,
2013-05-20 14:41:00,88.0,68.0,30.02,SSE,168,4.0,12.0,52,0.00,,,0.01,,2013-05-20 19:41:00,
2013-05-20 14:52:00,88.0,66.0,30.01,West,264,4.0,10.0,49,0.00,,,0.01,,2013-05-20 19:52:00,
2013-05-20 15:01:00,88.0,67.0,30.01,SSW,203,5.0,9.0,50,0.00,,,0.01,,2013-05-20 20:01:00,
2013-05-20 15:12:00,88.0,67.0,30.01,SSW,203,5.0,9.0,50,0.00,,,0.01,,2013-05-20 20:12:00,
2013-05-20 15:21:00,88.0,66.0,30.01,SSW,196,6.0,9.0,49,0.00,,,0.01,,2013-05-20 20:21:00,
2013-05-20 15:32:00,89.0,68.0,30.01,SW,236,5.0,11.0,50,0.00,,,0.01,,2013-05-20 20:32:00,
2013-05-20 15:42:00,89.0,68.0,30.01,SW,236,5.0,11.0,50,0.00,,,0.01,,2013-05-20 20:42:00,
2013-05-20 15:52:00,89.0,70.0,30.00,SSE,148,5.0,11.0,53,0.00,,,0.01,,2013-05-20 20:52:00,
2013-05-20 16:01:00,87.0,69.0,30.00,SE,141,7.0,14.0,55,0.00,,,0.01,,2013-05-20 21:01:00,
2013-05-20 16:11:00,87.0,69.0,30.00,SE,141,7.0,14.0,55,0.00,,,0.01,,2013-05-20 21:11:00,
2013-05-20 16:21:00,87.0,69.0,30.00,South,177,6.0,14.0,55,0.00,,,0.01,,2013-05-20 21:21:00,
2013-05-20 16:32:00,87.0,68.0,30.00,South,172,5.0,12.0,53,0.00,,,0.01,,2013-05-20 21:32:00,
2013-05-20 16:43:00,87.0,68.0,30.00,South,172,5.0,12.0,53,0.00,,,0.01,,2013-05-20 21:43:00,
2013-05-20 16:53:00,87.0,68.0,30.00,South,172,5.0,12.0,53,0.00,,,0.01,,2013-05-20 21:53:00,
2013-05-20 17:02:00,86.0,67.0,30.00,South,173,6.0,11.0,54,0.00,,,0.01,,2013-05-20 22:02:00,
2013-05-20 17:12:00,86.0,67.0,30.00,South,173,6.0,11.0,54,0.00,,,0.01,,2013-05-20 22:12:00,
2013-05-20 17:23:00,85.0,68.0,29.99,SSE,159,6.0,13.0,57,0.00,,,0.01,,2013-05-20 22:23:00,
2013-05-20 17:33:00,85.0,69.0,29.99,SSE,155,6.0,13.0,59,0.00,,,0.01,,2013-05-20 22:33:00,
2013-05-20 17:42:00,85.0,69.0,29.99,SSE,155,6.0,13.0,59,0.00,,,0.01,,2013-05-20 22:42:00,
2013-05-20 17:52:00,84.0,70.0,29.98,SSE,155,7.0,15.0,63,0.00,,,0.01,,2013-05-20 22:52:00,
2013-05-20 18:02:00,83.0,70.0,29.98,SSE,163,9.0,13.0,64,0.00,,,0.01,,2013-05-20 23:02:00,
2013-05-20 18:12:00,83.0,70.0,29.98,SSE,163,9.0,13.0,64,0.00,,,0.01,,2013-05-20 23:12:00,
2013-05-20 18:22:00,83.0,70.0,29.98,SSE,168,5.0,12.0,64,0.00,,,0.01,,2013-05-20 23:22:00,
2013-05-20 18:32:00,83.0,68.0,29.98,SSE,164,4.0,9.0,61,0.00,,,0.01,,2013-05-20 23:32:00,
2013-05-20 18:42:00,83.0,68.0,29.98,SSE,164,4.0,9.0,61,0.00,,,0.01,,2013-05-20 23:42:00,
2013-05-20 18:53:00,82.0,68.0,29.98,South,173,3.0,11.0,62,0.00,,,0.01,,2013-05-20 23:53:00,
2013-05-20 19:01:00,81.0,68.0,29.98,SSE,163,5.0,10.0,65,0.00,,,0.01,,2013-05-21 00:01:00,
2013-05-20 19:11:00,81.0,68.0,29.98,SSE,163,5.0,10.0,65,0.00,,,0.01,,2013-05-21 00:11:00,
2013-05-20 19:21:00,81.0,69.0,29.98,SSE,153,4.0,8.0,67,0.00,,,0.01,,2013-05-21 00:21:00,
2013-05-20 19:32:00,80.0,69.0,29.98,SSW,198,2.0,8.0,70,0.00,,,0.01,,2013-05-21 00:32:00,
2013-05-20 19:42:00,79.0,69.0,29.98,SSE,166,3.0,7.0,72,0.00,,,0.01,,2013-05-21 00:42:00,
2013-05-20 19:52:00,79.0,69.0,29.98,SSE,166,3.0,7.0,72,0.00,,,0.01,,2013-05-21 00:52:00,
2013-05-20 20:01:00,78.0,69.0,29.98,South,190,2.0,8.0,73,0.00,,,0.01,,2013-05-21 01:01:00,
2013-05-20 20:11:00,78.0,69.0,29.98,South,190,2.0,8.0,73,0.00,,,0.01,,2013-05-21 01:11:00,
2013-05-20 20:22:00,77.0,69.0,29.98,South,190,3.0,6.0,76,0.00,,,0.01,,2013-05-21 01:22:00,
2013-05-20 20:32:00,76.0,69.0,29.98,SSE,165,4.0,7.0,79,0.00,,,0.01,,2013-05-21 01:32:00,
2013-05-20 20:42:00,76.0,69.0,29.98,SSE,165,4.0,7.0,79,0.00,,,0.01,,2013-05-21 01:42:00,
2013-05-20 20:53:00,76.0,70.0,29.97,SSE,161,3.0,5.0,82,0.00,,,0.01,,2013-05-21 01:53:00,
2013-05-20 21:02:00,75.0,70.0,29.98,SSW,205,2.0,5.0,84,0.00,,,0.01,,2013-05-21 02:02:00,
2013-05-20 21:11:00,75.0,70.0,29.98,SSW,205,2.0,5.0,84,0.00,,,0.01,,2013-05-21 02:11:00,
2013-05-20 21:21:00,75.0,71.0,29.98,South,180,2.0,5.0,86,0.00,,,0.01,,2013-05-21 02:21:00,
2013-05-20 21:32:00,75.0,71.0,29.99,SSE,147,5.0,7.0,87,0.00,,,0.01,,2013-05-21 02:32:00,
2013-05-20 21:42:00,75.0,71.0,29.99,SSE,147,5.0,7.0,87,0.00,,,0.01,,2013-05-21 02:42:00,
2013-05-20 21:52:00,74.0,70.0,29.99,SE,146,4.0,6.0,88,0.00,,,0.01,,2013-05-21 02:52:00,
2013-05-20 22:02:00,74.0,71.0,29.99,SSE,155,2.0,5.0,89,0.00,,,0.01,,2013-05-21 03:02:00,
2013-05-20 22:11:00,74.0,71.0,29.99,SSE,155,2.0,5.0,89,0.00,,,0.01,,2013-05-21 03:11:00,
2013-05-20 22:21:00,73.0,70.0,30.00,SE,133,1.0,4.0,90,0.00,,,0.01,,2013-05-21 03:21:00,
2013-05-20 22:33:00,73.0,70.0,30.00,SE,146,3.0,5.0,91,0.00,,,0.01,,2013-05-21 03:33:00,
2013-05-20 22:43:00,73.0,71.0,30.00,SSE,153,2.0,3.0,92,0.00,,,0.01,,2013-05-21 03:43:00,
2013-05-20 22:53:00,73.0,71.0,30.00,SSE,153,2.0,3.0,92,0.00,,,0.01,,2013-05-21 03:53:00,
2013-05-20 23:03:00,73.0,71.0,30.01,SSE,153,0.0,3.0,92,0.00,,,0.01,,2013-05-21 04:03:00,
2013-05-20 23:13:00,73.0,71.0,30.01,SSE,153,0.0,3.0,92,0.00,,,0.01,,2013-05-21 04:13:00,
2013-05-20 23:23:00,73.0,71.0,30.00,SSW,212,0.0,3.0,92,0.00,,,0.01,,2013-05-21 04:23:00,
2013-05-20 23:33:00,72.0,70.0,30.00,South,183,1.0,3.0,94,0.00,,,0.01,,2013-05-21 04:33:00,
2013-05-20 23:42:00,72.0,70.0,30.00,South,183,1.0,3.0,94,0.00,,,0.01,,2013-05-21 04:42:00,
2013-05-20 23:53:00,72.0,70.0,29.99,South,180,0.0,4.0,94,0.00,,,0.01,,2013-05-21 04:53:00,